createdAt,value
2018-08-04T00:00:50.291Z,20.44
2018-08-04T00:03:18.626Z,20.41
2018-08-04T00:05:46.985Z,20.38
2018-08-04T00:08:15.433Z,20.35
2018-08-04T00:10:43.767Z,20.31
2018-08-04T00:13:12.139Z,20.30
2018-08-04T00:15:40.523Z,20.27
2018-08-04T00:18:09.054Z,20.27
2018-08-04T00:20:37.426Z,20.26
2018-08-04T00:23:06.497Z,20.24
2018-08-04T00:25:34.873Z,20.22
2018-08-04T00:28:03.226Z,20.18
2018-08-04T00:30:31.591Z,20.18
2018-08-04T00:33:01.227Z,20.18
2018-08-04T00:35:30.252Z,20.17
2018-08-04T00:37:59.383Z,20.20
2018-08-04T00:40:28.410Z,20.19
2018-08-04T00:42:56.775Z,20.21
2018-08-04T00:45:25.158Z,20.20
2018-08-04T00:47:54.398Z,20.20
2018-08-04T00:50:22.772Z,20.17
2018-08-04T00:52:51.125Z,20.17
2018-08-04T00:55:19.495Z,20.16
2018-08-04T00:57:47.848Z,20.15
2018-08-04T01:00:16.197Z,20.15
2018-08-04T01:02:44.547Z,20.15
2018-08-04T01:05:12.904Z,20.15
2018-08-04T01:07:41.281Z,20.13
2018-08-04T01:10:09.629Z,20.11
2018-08-04T01:12:37.979Z,20.08
2018-08-04T01:15:07.333Z,20.06
2018-08-04T01:17:36.842Z,20.04
2018-08-04T01:20:06.989Z,20.02
2018-08-04T01:22:37.469Z,20.03
2018-08-04T01:25:07.777Z,20.00
2018-08-04T01:27:37.464Z,19.97
2018-08-04T01:30:07.443Z,19.95
2018-08-04T01:32:36.998Z,19.94
2018-08-04T01:35:05.859Z,19.91
2018-08-04T01:37:35.359Z,19.90
2018-08-04T01:40:05.533Z,19.87
2018-08-04T01:42:33.880Z,19.86
2018-08-04T01:45:02.238Z,19.84
2018-08-04T01:47:31.624Z,19.80
2018-08-04T01:50:00.956Z,19.78
2018-08-04T01:52:30.373Z,19.77
2018-08-04T01:55:00.950Z,19.75
2018-08-04T01:57:30.154Z,19.76
2018-08-04T01:59:59.586Z,19.77
2018-08-04T02:02:27.972Z,19.77
2018-08-04T02:04:57.334Z,19.76
2018-08-04T02:07:26.580Z,19.73
2018-08-04T02:09:55.787Z,19.70
2018-08-04T02:12:24.736Z,19.70
2018-08-04T02:14:53.112Z,19.69
2018-08-04T02:17:21.450Z,19.65
2018-08-04T02:19:49.797Z,19.61
2018-08-04T02:22:18.233Z,19.55
2018-08-04T02:24:47.174Z,19.50
2018-08-04T02:27:16.381Z,19.46
2018-08-04T02:29:45.724Z,19.41
2018-08-04T02:32:14.057Z,19.38
2018-08-04T02:34:42.409Z,19.34
2018-08-04T02:37:10.766Z,19.31
2018-08-04T02:39:39.124Z,19.30
2018-08-04T02:42:07.457Z,19.28
2018-08-04T02:44:36.673Z,19.29
2018-08-04T02:47:06.393Z,19.28
2018-08-04T02:49:37.189Z,19.26
2018-08-04T02:52:06.632Z,19.25
2018-08-04T02:54:36.816Z,19.23
2018-08-04T02:57:06.382Z,19.20
2018-08-04T02:59:37.131Z,19.18
2018-08-04T03:02:06.838Z,19.15
2018-08-04T03:04:36.075Z,19.11
2018-08-04T03:07:06.463Z,19.09
2018-08-04T03:09:35.526Z,19.07
2018-08-04T03:12:04.761Z,19.04
2018-08-04T03:14:33.084Z,19.03
2018-08-04T03:17:02.346Z,19.02
2018-08-04T03:19:31.642Z,19.00
2018-08-04T03:22:02.458Z,18.98
2018-08-04T03:24:30.841Z,18.97
2018-08-04T03:26:59.601Z,18.98
2018-08-04T03:29:28.612Z,18.95
2018-08-04T03:31:58.046Z,18.95
2018-08-04T03:34:27.238Z,18.92
2018-08-04T03:36:56.606Z,18.90
2018-08-04T03:39:25.878Z,18.87
2018-08-04T03:41:55.216Z,18.86
2018-08-04T03:44:23.565Z,18.88
2018-08-04T03:49:26.006Z,18.90
2018-08-04T03:51:55.255Z,18.95
2018-08-04T03:54:24.509Z,19.02
2018-08-04T03:56:53.733Z,19.08
2018-08-04T03:59:23.077Z,19.14
2018-08-04T04:01:52.416Z,19.21
2018-08-04T04:04:21.625Z,19.28
2018-08-04T04:06:50.965Z,19.38
2018-08-04T04:09:20.178Z,19.46
2018-08-04T04:11:48.522Z,19.52
2018-08-04T04:14:17.918Z,19.57
2018-08-04T04:16:47.202Z,19.61
2018-08-04T04:19:16.409Z,19.64
2018-08-04T04:21:45.732Z,19.66
2018-08-04T04:24:14.073Z,19.70
2018-08-04T04:26:43.394Z,19.72
2018-08-04T04:29:12.750Z,19.74
2018-08-04T04:31:41.085Z,19.80
2018-08-04T04:34:10.320Z,19.83
2018-08-04T04:36:39.520Z,19.86
2018-08-04T04:39:09.364Z,19.87
2018-08-04T04:41:39.065Z,19.88
2018-08-04T04:44:08.830Z,19.89
2018-08-04T04:46:38.183Z,19.90
2018-08-04T04:49:09.451Z,19.89
2018-08-04T04:51:39.124Z,19.94
2018-08-04T04:54:08.498Z,19.94
2018-08-04T04:56:37.716Z,20.00
2018-08-04T04:59:07.243Z,20.00
2018-08-04T05:01:37.702Z,20.02
2018-08-04T05:04:07.085Z,20.04
2018-08-04T05:06:37.703Z,20.05
2018-08-04T05:09:08.407Z,20.12
2018-08-04T05:11:37.786Z,20.15
2018-08-04T05:14:06.256Z,20.14
2018-08-04T05:16:35.945Z,20.16
2018-08-04T05:19:05.075Z,20.21
2018-08-04T05:21:33.473Z,20.29
2018-08-04T05:24:02.843Z,20.29
2018-08-04T05:26:32.845Z,20.32
2018-08-04T05:29:01.887Z,20.45
2018-08-04T05:31:32.599Z,20.48
2018-08-04T05:34:01.993Z,20.53
2018-08-04T05:36:31.248Z,20.60
2018-08-04T05:39:00.730Z,20.70
2018-08-04T05:41:31.063Z,20.80
2018-08-04T05:44:01.847Z,20.99
2018-08-04T05:46:31.231Z,21.10
2018-08-04T05:49:00.482Z,21.22
2018-08-04T05:51:30.158Z,21.42
2018-08-04T05:53:59.661Z,21.55
2018-08-04T05:56:29.840Z,21.63
2018-08-04T05:58:58.728Z,21.65
2018-08-04T06:01:28.668Z,21.65
2018-08-04T06:03:57.019Z,21.64
2018-08-04T06:06:26.306Z,21.62
2018-08-04T06:08:54.656Z,21.59
2018-08-04T06:11:24.062Z,21.66
2018-08-04T06:13:52.569Z,21.67
2018-08-04T06:16:22.282Z,21.76
2018-08-04T06:18:50.758Z,21.81
2018-08-04T06:21:20.139Z,21.81
2018-08-04T06:23:48.493Z,21.85
2018-08-04T06:26:17.662Z,22.01
2018-08-04T06:28:46.935Z,22.04
2018-08-04T06:31:16.345Z,22.06
2018-08-04T06:33:45.718Z,22.20
2018-08-04T06:36:15.084Z,22.53
2018-08-04T06:38:43.434Z,22.70
2018-08-04T06:41:12.742Z,23.06
2018-08-04T06:43:41.912Z,23.19
2018-08-04T06:46:10.499Z,23.28
2018-08-04T06:48:39.835Z,23.31
2018-08-04T06:51:08.234Z,23.46
2018-08-04T06:53:37.231Z,23.51
2018-08-04T06:56:06.569Z,23.61
2018-08-04T06:58:36.801Z,23.79
2018-08-04T07:01:07.194Z,23.94
2018-08-04T07:03:37.373Z,24.06
2018-08-04T07:06:08.158Z,24.14
2018-08-04T07:08:37.396Z,24.27
2018-08-04T07:11:07.129Z,24.29
2018-08-04T07:13:37.873Z,24.34
2018-08-04T07:16:07.187Z,24.51
2018-08-04T07:18:37.103Z,24.64
2018-08-04T07:21:06.778Z,24.75
2018-08-04T07:23:36.281Z,24.83
2018-08-04T07:26:05.377Z,24.95
2018-08-04T07:28:34.497Z,25.04
2018-08-04T07:31:02.869Z,25.13
2018-08-04T07:33:31.808Z,25.31
2018-08-04T07:36:01.548Z,25.45
2018-08-04T07:38:30.762Z,25.61
2018-08-04T07:40:59.779Z,25.60
2018-08-04T07:43:28.639Z,25.95
2018-08-04T07:45:57.028Z,25.94
2018-08-04T07:48:26.261Z,26.01
2018-08-04T07:50:55.717Z,26.18
2018-08-04T07:53:24.980Z,26.29
2018-08-04T07:55:54.282Z,26.38
2018-08-04T07:58:22.804Z,26.60
2018-08-04T08:00:51.203Z,26.66
2018-08-04T08:03:19.541Z,26.84
2018-08-04T08:05:47.950Z,26.97
2018-08-04T08:08:16.441Z,27.16
2018-08-04T08:10:47.718Z,27.27
2018-08-04T08:13:16.517Z,27.41
2018-08-04T08:15:45.072Z,27.47
2018-08-04T08:18:13.439Z,27.64
2018-08-04T08:20:41.897Z,27.74
2018-08-04T08:23:10.683Z,27.87
2018-08-04T08:25:39.125Z,27.97
2018-08-04T08:28:07.630Z,27.97
2018-08-04T08:30:36.854Z,28.23
2018-08-04T08:33:06.843Z,28.21
2018-08-04T08:35:37.222Z,28.29
2018-08-04T08:38:06.485Z,28.49
2018-08-04T08:40:34.846Z,28.61
2018-08-04T08:43:05.019Z,28.70
2018-08-04T08:45:33.427Z,28.90
2018-08-04T08:48:01.930Z,28.99
2018-08-04T08:50:31.362Z,29.25
2018-08-04T08:53:01.312Z,29.35
2018-08-04T08:55:32.180Z,29.49
2018-08-04T08:58:01.517Z,29.53
2018-08-04T09:00:30.444Z,29.63
2018-08-04T09:02:58.863Z,29.81
2018-08-04T09:05:27.232Z,29.90
2018-08-04T09:07:55.589Z,29.97
2018-08-04T09:10:23.955Z,30.15
2018-08-04T09:12:53.268Z,30.23
2018-08-04T09:15:22.462Z,30.36
2018-08-04T09:17:51.699Z,30.44
2018-08-04T09:20:21.113Z,30.57
2018-08-04T09:22:50.513Z,30.61
2018-08-04T09:25:19.876Z,30.60
2018-08-04T09:27:48.845Z,30.64
2018-08-04T09:30:17.223Z,30.70
2018-08-04T09:32:46.502Z,30.80
2018-08-04T09:35:15.841Z,30.92
2018-08-04T09:37:44.662Z,30.93
2018-08-04T09:40:15.210Z,31.01
2018-08-04T09:42:44.772Z,31.14
2018-08-04T09:45:13.171Z,31.18
2018-08-04T09:47:42.644Z,31.43
2018-08-04T09:50:13.087Z,31.54
2018-08-04T09:52:42.792Z,31.75
2018-08-04T09:55:12.504Z,31.64
2018-08-04T09:57:41.558Z,31.67
2018-08-04T10:00:15.575Z,31.79
2018-08-04T10:02:43.951Z,31.87
2018-08-04T10:05:12.373Z,31.80
2018-08-04T10:07:40.748Z,31.82
2018-08-04T10:10:09.137Z,31.99
2018-08-04T10:12:37.546Z,32.21
2018-08-04T10:15:08.030Z,32.23
2018-08-04T10:17:37.703Z,32.28
2018-08-04T10:20:07.653Z,32.30
2018-08-04T10:22:37.487Z,32.42
2018-08-04T10:25:06.914Z,32.65
2018-08-04T10:27:37.627Z,32.65
2018-08-04T10:30:08.286Z,32.87
2018-08-04T10:32:38.139Z,32.96
2018-08-04T10:35:07.847Z,33.18
2018-08-04T10:37:37.087Z,33.29
2018-08-04T10:40:06.592Z,33.23
2018-08-04T10:42:34.989Z,33.32
2018-08-04T10:45:03.410Z,33.23
2018-08-04T10:47:32.687Z,33.44
2018-08-04T10:50:03.074Z,33.45
2018-08-04T10:52:33.155Z,33.46
2018-08-04T10:55:01.567Z,33.58
2018-08-04T10:57:30.715Z,33.60
2018-08-04T11:00:00.020Z,33.28
2018-08-04T11:02:38.775Z,33.19
2018-08-04T11:05:08.430Z,33.53
2018-08-04T11:07:38.763Z,33.83
2018-08-04T11:10:08.448Z,34.04
2018-08-04T11:12:37.966Z,34.52
2018-08-04T11:15:07.208Z,34.58
2018-08-04T11:17:37.518Z,34.64
2018-08-04T11:20:38.502Z,34.62
2018-08-04T11:23:07.760Z,34.64
2018-08-04T11:25:37.287Z,34.76
2018-08-04T11:28:06.663Z,34.76
2018-08-04T11:30:35.075Z,34.68
2018-08-04T11:33:03.453Z,34.71
2018-08-04T11:35:31.985Z,35.04
2018-08-04T11:38:01.367Z,35.36
2018-08-04T11:40:30.843Z,35.72
2018-08-04T11:42:59.902Z,35.72
2018-08-04T11:45:28.823Z,35.44
2018-08-04T11:47:57.203Z,35.17
2018-08-04T11:50:25.553Z,34.92
2018-08-04T11:52:53.926Z,35.06
2018-08-04T11:55:22.294Z,34.75
2018-08-04T11:57:52.213Z,34.87
2018-08-04T12:00:20.574Z,34.82
2018-08-04T12:02:49.345Z,34.46
2018-08-04T12:05:17.754Z,34.48
2018-08-04T12:07:46.216Z,34.52
2018-08-04T12:10:15.380Z,34.76
2018-08-04T12:12:43.734Z,34.60
2018-08-04T12:15:12.718Z,34.75
2018-08-04T12:17:42.930Z,34.32
2018-08-04T12:20:12.205Z,34.37
2018-08-04T12:22:41.395Z,34.23
2018-08-04T12:25:09.767Z,34.37
2018-08-04T12:27:39.133Z,34.51
2018-08-04T12:30:09.087Z,34.67
2018-08-04T12:32:38.382Z,34.52
2018-08-04T12:35:09.590Z,34.51
2018-08-04T12:37:39.120Z,34.28
2018-08-04T12:40:08.311Z,34.21
2018-08-04T12:42:38.317Z,34.46
2018-08-04T12:45:08.681Z,34.50
2018-08-04T12:47:37.348Z,34.58
2018-08-04T12:50:06.493Z,34.63
2018-08-04T12:52:34.864Z,34.79
2018-08-04T12:55:03.216Z,34.78
2018-08-04T12:57:32.421Z,34.95
2018-08-04T13:00:01.437Z,35.10
2018-08-04T13:02:31.100Z,35.17
2018-08-04T13:04:59.914Z,35.29
2018-08-04T13:07:28.406Z,35.38
2018-08-04T13:09:56.901Z,35.05
2018-08-04T13:12:25.256Z,34.91
2018-08-04T13:14:53.604Z,34.65
2018-08-04T13:17:22.020Z,34.87
2018-08-04T13:19:50.370Z,34.70
2018-08-04T13:22:18.711Z,34.37
2018-08-04T13:24:47.057Z,34.67
2018-08-04T13:27:15.476Z,34.67
2018-08-04T13:29:44.718Z,34.75
2018-08-04T13:32:14.338Z,34.72
2018-08-04T13:34:42.809Z,34.83
2018-08-04T13:37:11.220Z,34.50
2018-08-04T13:39:39.556Z,34.50
2018-08-04T13:42:08.056Z,34.44
2018-08-04T13:44:37.186Z,34.20
2018-08-04T13:47:06.492Z,34.18
2018-08-04T13:49:34.861Z,33.86
2018-08-04T13:52:03.217Z,33.39
2018-08-04T13:54:31.573Z,33.13
2018-08-04T13:57:02.036Z,33.01
2018-08-04T13:59:33.041Z,33.09
2018-08-04T14:02:04.333Z,33.24
2018-08-04T14:04:32.672Z,33.12
2018-08-04T14:07:02.113Z,33.24
2018-08-04T14:09:31.334Z,33.43
2018-08-04T14:11:59.711Z,33.62
2018-08-04T14:14:30.013Z,33.57
2018-08-04T14:16:59.051Z,33.51
2018-08-04T14:19:27.391Z,33.46
2018-08-04T14:21:56.754Z,33.29
2018-08-04T14:24:25.112Z,33.14
2018-08-04T14:26:53.536Z,33.15
2018-08-04T14:29:21.950Z,33.09
2018-08-04T14:31:50.297Z,32.90
2018-08-04T14:34:19.496Z,33.29
2018-08-04T14:36:47.922Z,33.75
2018-08-04T14:39:16.329Z,34.09
2018-08-04T14:41:44.685Z,34.28
2018-08-04T14:44:13.033Z,34.40
2018-08-04T14:46:42.260Z,34.60
2018-08-04T14:49:11.636Z,34.98
2018-08-04T14:51:40.955Z,35.60
2018-08-04T14:54:09.285Z,35.61
2018-08-04T14:56:37.648Z,35.24
2018-08-04T14:59:07.021Z,34.96
2018-08-04T15:01:36.797Z,34.61
2018-08-04T15:04:06.466Z,34.06
2018-08-04T15:06:36.272Z,33.48
2018-08-04T15:09:08.561Z,33.39
2018-08-04T15:11:37.770Z,33.19
2018-08-04T15:14:07.013Z,33.36
2018-08-04T15:16:36.866Z,33.36
2018-08-04T15:19:06.989Z,33.36
2018-08-04T15:21:37.800Z,33.59
2018-08-04T15:24:08.295Z,34.46
2018-08-04T15:26:37.709Z,35.33
2018-08-04T15:29:06.920Z,36.26
2018-08-04T15:31:36.805Z,36.00
2018-08-04T15:34:06.338Z,35.46
2018-08-04T15:36:35.400Z,35.21
2018-08-04T15:39:05.321Z,35.71
2018-08-04T15:41:35.292Z,36.48
2018-08-04T15:44:05.321Z,37.14
2018-08-04T15:46:33.854Z,37.57
2018-08-04T15:49:03.230Z,38.10
2018-08-04T15:51:32.693Z,38.27
2018-08-04T15:54:02.045Z,38.67
2018-08-04T15:56:31.298Z,38.82
2018-08-04T15:59:01.562Z,38.08
2018-08-04T16:01:31.104Z,37.01
2018-08-04T16:04:01.887Z,36.20
2018-08-04T16:06:31.312Z,35.83
2018-08-04T16:09:01.476Z,35.14
2018-08-04T16:11:30.522Z,35.02
2018-08-04T16:14:00.209Z,34.63
2018-08-04T16:16:29.081Z,34.31
2018-08-04T16:18:57.424Z,34.07
2018-08-04T16:21:25.767Z,33.92
2018-08-04T16:23:54.100Z,34.06
2018-08-04T16:26:22.445Z,33.87
2018-08-04T16:28:51.372Z,33.89
2018-08-04T16:31:19.716Z,33.73
2018-08-04T16:33:48.073Z,33.60
2018-08-04T16:36:16.410Z,33.54
2018-08-04T16:38:44.752Z,32.87
2018-08-04T16:41:13.089Z,32.81
2018-08-04T16:43:41.460Z,32.68
2018-08-04T16:46:09.817Z,32.61
2018-08-04T16:48:38.218Z,32.56
2018-08-04T16:51:07.828Z,32.41
2018-08-04T16:53:36.809Z,32.29
2018-08-04T16:56:06.668Z,32.05
2018-08-04T16:58:35.745Z,32.03
2018-08-04T17:01:05.441Z,31.86
2018-08-04T17:03:33.785Z,31.67
2018-08-04T17:06:02.140Z,31.63
2018-08-04T17:08:32.293Z,31.72
2018-08-04T17:11:01.626Z,31.83
2018-08-04T17:13:31.026Z,31.80
2018-08-04T17:16:00.233Z,31.83
2018-08-04T17:18:28.666Z,32.11
2018-08-04T17:20:56.995Z,32.04
2018-08-04T17:23:25.376Z,31.96
2018-08-04T17:25:53.741Z,32.04
2018-08-04T17:28:22.082Z,31.88
2018-08-04T17:30:50.431Z,31.78
2018-08-04T17:33:18.760Z,31.57
2018-08-04T17:35:47.105Z,31.49
2018-08-04T17:38:15.468Z,31.54
2018-08-04T17:40:43.805Z,31.36
2018-08-04T17:43:12.157Z,31.14
2018-08-04T17:45:40.492Z,30.92
2018-08-04T17:48:08.824Z,30.73
2018-08-04T17:50:37.149Z,30.64
2018-08-04T17:53:06.426Z,30.59
2018-08-04T17:55:35.472Z,30.42
2018-08-04T17:58:03.816Z,30.38
2018-08-04T18:00:32.161Z,30.25
2018-08-04T18:03:00.562Z,30.16
2018-08-04T18:05:30.037Z,30.16
2018-08-04T18:07:59.318Z,29.93
2018-08-04T18:10:29.153Z,29.81
2018-08-04T18:12:57.573Z,29.63
2018-08-04T18:15:25.922Z,29.51
2018-08-04T18:17:54.278Z,29.56
2018-08-04T18:20:22.649Z,29.47
2018-08-04T18:22:52.056Z,29.35
2018-08-04T18:25:21.420Z,29.17
2018-08-04T18:27:50.624Z,28.99
2018-08-04T18:30:19.864Z,28.85
2018-08-04T18:32:48.218Z,28.86
2018-08-04T18:35:16.597Z,28.76
2018-08-04T18:37:44.952Z,28.65
2018-08-04T18:40:13.337Z,28.48
2018-08-04T18:42:41.661Z,28.40
2018-08-04T18:45:11.025Z,28.29
2018-08-04T18:47:39.353Z,28.26
2018-08-04T18:50:07.805Z,28.24
2018-08-04T18:52:37.220Z,28.34
2018-08-04T18:55:07.818Z,28.30
2018-08-04T18:57:37.142Z,28.34
2018-08-04T19:00:07.638Z,28.13
2018-08-04T19:02:36.888Z,28.05
2018-08-04T19:05:06.033Z,27.89
2018-08-04T19:07:35.202Z,27.95
2018-08-04T19:10:05.209Z,27.68
2018-08-04T19:12:35.336Z,27.67
2018-08-04T19:15:05.358Z,27.39
2018-08-04T19:17:34.749Z,27.34
2018-08-04T19:20:03.074Z,27.21
2018-08-04T19:22:31.522Z,27.07
2018-08-04T19:25:00.265Z,26.88
2018-08-04T19:27:28.645Z,26.82
2018-08-04T19:29:56.977Z,26.74
2018-08-04T19:32:25.317Z,26.58
2018-08-04T19:34:53.667Z,26.62
2018-08-04T19:37:22.013Z,26.39
2018-08-04T19:39:50.347Z,26.36
2018-08-04T19:42:18.694Z,26.31
2018-08-04T19:44:47.049Z,26.44
2018-08-04T19:47:15.381Z,26.23
2018-08-04T19:49:43.745Z,26.20
2018-08-04T19:52:12.073Z,26.00
2018-08-04T19:54:40.421Z,25.87
2018-08-04T19:57:08.753Z,25.77
2018-08-04T19:59:37.078Z,25.83
2018-08-04T20:02:06.174Z,25.91
2018-08-04T20:04:35.697Z,25.83
2018-08-04T20:07:05.105Z,25.87
2018-08-04T20:09:34.777Z,25.80
2018-08-04T20:12:05.357Z,25.76
2018-08-04T20:14:35.383Z,25.77
2018-08-04T20:17:05.475Z,25.71
2018-08-04T20:19:33.802Z,25.60
2018-08-04T20:22:02.153Z,25.62
2018-08-04T20:24:31.616Z,25.47
2018-08-04T20:27:00.607Z,25.50
2018-08-04T20:29:28.987Z,25.44
2018-08-04T20:31:58.245Z,25.47
2018-08-04T20:34:26.659Z,25.38
2018-08-04T20:36:55.027Z,25.30
2018-08-04T20:39:23.371Z,25.15
2018-08-04T20:41:51.760Z,25.06
2018-08-04T20:44:20.099Z,25.08
2018-08-04T20:46:48.463Z,25.13
2018-08-04T20:49:16.805Z,25.11
2018-08-04T20:51:45.154Z,25.09
2018-08-04T20:54:13.494Z,25.01
2018-08-04T20:56:41.868Z,25.02
2018-08-04T20:59:10.198Z,24.94
2018-08-04T21:02:10.957Z,24.91
2018-08-04T21:04:39.292Z,24.91
2018-08-04T21:07:07.792Z,24.85
2018-08-04T21:09:37.139Z,24.71
2018-08-04T21:12:06.465Z,24.66
2018-08-04T21:14:35.205Z,24.66
2018-08-04T21:17:05.845Z,24.59
2018-08-04T21:19:36.336Z,24.57
2018-08-04T21:22:05.279Z,24.42
2018-08-04T21:24:35.305Z,24.26
2018-08-04T21:27:05.341Z,24.31
2018-08-04T21:29:33.789Z,24.38
2018-08-04T21:32:02.916Z,24.32
2018-08-04T21:34:32.157Z,24.19
2018-08-04T21:37:01.438Z,24.22
2018-08-04T21:39:31.893Z,24.19
2018-08-04T21:42:00.297Z,24.07
2018-08-04T21:44:30.520Z,24.09
2018-08-04T21:46:59.289Z,24.09
2018-08-04T21:49:27.677Z,23.93
2018-08-04T21:51:56.001Z,23.87
2018-08-04T21:54:24.325Z,23.77
2018-08-04T21:56:53.666Z,23.64
2018-08-04T21:59:22.997Z,23.65
2018-08-04T22:01:55.098Z,23.48
2018-08-04T22:04:23.400Z,23.55
2018-08-04T22:08:01.857Z,23.43
2018-08-04T22:10:31.240Z,23.20
2018-08-04T22:13:00.299Z,23.07
2018-08-04T22:15:29.274Z,22.97
2018-08-04T22:17:57.853Z,22.90
2018-08-04T22:20:26.860Z,22.83
2018-08-04T22:22:55.252Z,22.82
2018-08-04T22:25:25.745Z,22.73
2018-08-04T22:27:55.605Z,22.67
2018-08-04T22:30:24.373Z,22.51
2018-08-04T22:32:53.190Z,22.44
2018-08-04T22:35:21.897Z,22.32
2018-08-04T22:37:50.327Z,22.23
2018-08-04T22:40:19.676Z,22.15
2018-08-04T22:42:48.023Z,22.05
2018-08-04T22:46:11.055Z,21.97
2018-08-04T22:48:39.572Z,21.89
2018-08-04T22:51:07.958Z,21.82
2018-08-04T22:53:37.516Z,21.75
2018-08-04T22:56:06.647Z,21.66
2018-08-04T22:58:34.980Z,21.59
2018-08-04T23:01:03.329Z,21.52
2018-08-04T23:03:33.188Z,21.47
2018-08-04T23:06:02.593Z,21.44
2018-08-04T23:08:31.000Z,21.40
2018-08-04T23:10:59.385Z,21.36
2018-08-04T23:13:27.716Z,21.37
2018-08-04T23:15:56.073Z,21.36
2018-08-04T23:18:24.393Z,21.33
2018-08-04T23:20:52.768Z,21.27
2018-08-04T23:23:22.004Z,21.21
2018-08-04T23:25:51.345Z,21.16
2018-08-04T23:28:20.573Z,21.14
2018-08-04T23:30:49.844Z,21.15
2018-08-04T23:33:18.176Z,21.14
2018-08-04T23:35:47.389Z,21.15
2018-08-04T23:38:15.743Z,21.14
2018-08-04T23:40:44.101Z,21.12
2018-08-04T23:43:12.429Z,21.09
2018-08-04T23:45:40.769Z,21.00
2018-08-04T23:48:09.138Z,20.95
2018-08-04T23:50:37.462Z,20.92
2018-08-04T23:53:06.852Z,20.87
2018-08-04T23:55:35.718Z,20.81
2018-08-04T23:58:05.450Z,20.82
